createdAt,value
2023-03-17T00:01:13.736Z,6.07
2023-03-17T00:03:42.391Z,5.72
2023-03-17T00:06:17.754Z,5.90
2023-03-17T00:08:46.181Z,6.03
2023-03-17T00:11:15.923Z,6.57
2023-03-17T00:13:43.551Z,5.93
2023-03-17T00:16:16.950Z,5.60
2023-03-17T00:18:44.620Z,6.18
2023-03-17T00:21:16.437Z,6.45
2023-03-17T00:23:49.776Z,5.60
2023-03-17T00:26:16.334Z,6.57
2023-03-17T00:28:43.170Z,5.88
2023-03-17T00:31:14.114Z,5.63
2023-03-17T00:33:41.606Z,6.32
2023-03-17T00:36:13.572Z,6.38
2023-03-17T00:38:40.029Z,6.85
2023-03-17T00:41:08.128Z,5.03
2023-03-17T00:43:34.458Z,5.78
2023-03-17T00:46:01.287Z,6.05
2023-03-17T00:48:29.789Z,6.40
2023-03-17T00:50:56.136Z,6.03
2023-03-17T00:53:22.516Z,5.57
2023-03-17T00:55:49.213Z,5.97
2023-03-17T00:58:27.136Z,5.60
2023-03-17T01:00:54.962Z,6.10
2023-03-17T01:03:22.136Z,6.07
2023-03-17T01:05:49.960Z,6.20
2023-03-17T01:08:16.738Z,5.25
2023-03-17T01:10:43.371Z,5.60
2023-03-17T01:13:13.035Z,5.75
2023-03-17T01:15:46.702Z,5.85
2023-03-17T01:18:15.994Z,5.50
2023-03-17T01:20:43.197Z,6.05
2023-03-17T01:23:10.536Z,5.38
2023-03-17T01:25:38.468Z,5.80
2023-03-17T01:28:05.666Z,6.22
2023-03-17T01:30:36.422Z,5.28
2023-03-17T01:33:03.662Z,5.40
2023-03-17T01:35:30.104Z,4.78
2023-03-17T01:37:57.137Z,5.78
2023-03-17T01:40:30.467Z,5.18
2023-03-17T01:43:17.566Z,5.25
2023-03-17T01:46:21.065Z,7.07
2023-03-17T01:48:51.135Z,5.35
2023-03-17T01:51:23.490Z,5.82
2023-03-17T01:53:52.756Z,3.80
2023-03-17T01:56:20.391Z,6.03
2023-03-17T01:58:52.361Z,6.32
2023-03-17T02:01:25.246Z,5.78
2023-03-17T02:03:53.396Z,4.97
2023-03-17T02:06:19.788Z,5.57
2023-03-17T02:08:46.266Z,5.10
2023-03-17T02:11:13.363Z,5.45
2023-03-17T02:13:41.715Z,4.85
2023-03-17T02:16:14.613Z,5.30
2023-03-17T02:18:41.233Z,6.13
2023-03-17T02:21:28.317Z,5.63
2023-03-17T02:23:56.084Z,6.15
2023-03-17T02:26:25.858Z,5.93
2023-03-17T02:28:52.313Z,5.85
2023-03-17T02:31:19.303Z,5.72
2023-03-17T02:33:45.910Z,5.90
2023-03-17T02:36:12.396Z,5.45
2023-03-17T02:38:38.810Z,5.18
2023-03-17T02:41:06.322Z,5.43
2023-03-17T02:43:33.259Z,5.00
2023-03-17T02:45:59.582Z,5.32
2023-03-17T02:48:26.241Z,5.50
2023-03-17T02:50:52.828Z,5.10
2023-03-17T02:53:19.278Z,5.15
2023-03-17T02:55:45.577Z,5.93
2023-03-17T02:58:12.038Z,5.05
2023-03-17T03:00:39.119Z,5.88
2023-03-17T03:03:05.475Z,5.90
2023-03-17T03:05:32.074Z,5.45
2023-03-17T03:07:58.546Z,5.68
2023-03-17T03:10:25.069Z,6.22
2023-03-17T03:12:51.918Z,5.20
2023-03-17T03:15:18.268Z,6.35
2023-03-17T03:17:44.585Z,6.38
2023-03-17T03:20:12.810Z,4.95
2023-03-17T03:22:39.278Z,6.18
2023-03-17T03:25:07.386Z,5.65
2023-03-17T03:27:34.032Z,4.70
2023-03-17T03:30:01.520Z,4.82
2023-03-17T03:32:27.867Z,5.50
2023-03-17T03:34:54.255Z,5.50
2023-03-17T03:37:20.591Z,5.00
2023-03-17T03:39:47.634Z,6.03
2023-03-17T03:42:13.958Z,5.72
2023-03-17T03:44:40.281Z,5.32
2023-03-17T03:47:06.654Z,5.75
2023-03-17T03:49:33.024Z,5.03
2023-03-17T03:51:59.379Z,5.93
2023-03-17T03:54:25.738Z,5.25
2023-03-17T03:56:52.540Z,5.30
2023-03-17T03:59:18.889Z,6.03
2023-03-17T04:01:45.525Z,5.45
2023-03-17T04:04:11.849Z,5.50
2023-03-17T04:06:38.278Z,5.50
2023-03-17T04:09:04.652Z,5.10
2023-03-17T04:11:31.386Z,4.78
2023-03-17T04:13:57.731Z,7.00
2023-03-17T04:16:24.311Z,4.97
2023-03-17T04:18:51.149Z,5.15
2023-03-17T04:21:18.982Z,5.40
2023-03-17T04:23:46.340Z,5.40
2023-03-17T04:26:13.509Z,5.25
2023-03-17T04:28:40.152Z,6.57
2023-03-17T04:31:07.491Z,5.47
2023-03-17T04:33:34.034Z,5.00
2023-03-17T04:36:00.589Z,5.82
2023-03-17T04:38:27.283Z,5.45
2023-03-17T04:40:56.195Z,5.18
2023-03-17T04:43:22.574Z,5.20
2023-03-17T04:45:49.433Z,5.32
2023-03-17T04:48:18.200Z,6.03
2023-03-17T04:50:47.651Z,5.10
2023-03-17T04:53:14.415Z,4.82
2023-03-17T04:55:41.324Z,5.25
2023-03-17T04:58:08.366Z,5.72
2023-03-17T05:00:38.699Z,6.10
2023-03-17T05:03:16.784Z,4.65
2023-03-17T05:05:50.592Z,6.07
2023-03-17T05:08:17.206Z,5.32
2023-03-17T05:10:43.873Z,6.38
2023-03-17T05:13:10.497Z,5.32
2023-03-17T05:15:36.826Z,5.60
2023-03-17T05:18:05.015Z,5.22
2023-03-17T05:20:31.967Z,5.82
2023-03-17T05:22:58.559Z,5.55
2023-03-17T05:25:24.914Z,5.50
2023-03-17T05:27:51.238Z,5.47
2023-03-17T05:30:18.284Z,5.07
2023-03-17T05:32:44.632Z,5.30
2023-03-17T05:35:10.995Z,5.90
2023-03-17T05:37:37.902Z,5.47
2023-03-17T05:40:04.805Z,5.32
2023-03-17T05:42:31.251Z,5.35
2023-03-17T05:44:57.696Z,5.57
2023-03-17T05:47:24.022Z,5.72
2023-03-17T05:49:50.686Z,6.28
2023-03-17T05:52:17.093Z,5.53
2023-03-17T05:54:44.627Z,5.25
2023-03-17T05:57:11.052Z,5.40
2023-03-17T05:59:37.468Z,6.88
2023-03-17T06:02:03.891Z,5.30
2023-03-17T06:04:30.740Z,5.28
2023-03-17T06:06:57.621Z,5.10
2023-03-17T06:09:24.026Z,6.30
2023-03-17T06:11:50.742Z,6.38
2023-03-17T06:14:17.263Z,5.68
2023-03-17T06:16:43.601Z,5.35
2023-03-17T06:19:10.108Z,5.70
2023-03-17T06:21:36.862Z,6.15
2023-03-17T06:24:03.492Z,5.18
2023-03-17T06:26:29.951Z,5.20
2023-03-17T06:28:56.442Z,6.47
2023-03-17T06:31:23.790Z,5.57
2023-03-17T06:33:50.662Z,5.68
2023-03-17T06:36:17.032Z,5.80
2023-03-17T06:38:43.614Z,5.85
2023-03-17T06:41:09.955Z,5.53
2023-03-17T06:43:36.363Z,6.10
2023-03-17T06:46:03.072Z,5.35
2023-03-17T06:48:29.515Z,5.43
2023-03-17T06:50:56.125Z,6.22
2023-03-17T06:53:22.529Z,5.72
2023-03-17T06:55:48.862Z,6.03
2023-03-17T06:58:15.880Z,6.40
2023-03-17T07:00:43.078Z,5.82
2023-03-17T07:03:09.824Z,6.45
2023-03-17T07:05:36.193Z,6.25
2023-03-17T07:08:02.543Z,6.07
2023-03-17T07:10:28.949Z,6.03
2023-03-17T07:12:55.763Z,6.82
2023-03-17T07:15:22.130Z,6.25
2023-03-17T07:17:48.506Z,6.82
2023-03-17T07:20:15.046Z,6.80
2023-03-17T07:22:41.685Z,5.90
2023-03-17T07:25:09.493Z,7.28
2023-03-17T07:27:35.878Z,6.80
2023-03-17T07:30:04.960Z,6.88
2023-03-17T07:32:32.253Z,6.40
2023-03-17T07:34:59.262Z,7.47
2023-03-17T07:37:25.624Z,6.47
2023-03-17T07:39:51.960Z,6.80
2023-03-17T07:42:18.404Z,6.40
2023-03-17T07:44:44.706Z,7.32
2023-03-17T07:47:11.844Z,7.38
2023-03-17T07:49:41.988Z,6.78
2023-03-17T07:52:10.438Z,7.60
2023-03-17T07:54:37.487Z,7.35
2023-03-17T07:57:04.564Z,7.30
2023-03-17T07:59:31.466Z,7.00
2023-03-17T08:01:59.575Z,6.13
2023-03-17T08:04:27.414Z,6.38
2023-03-17T08:06:54.381Z,6.88
2023-03-17T08:09:22.202Z,6.28
2023-03-17T08:11:48.914Z,6.85
2023-03-17T08:14:15.376Z,7.15
2023-03-17T08:16:42.162Z,8.07
2023-03-17T08:19:08.601Z,6.93
2023-03-17T08:21:35.068Z,6.13
2023-03-17T08:24:01.542Z,6.55
2023-03-17T08:26:28.393Z,6.72
2023-03-17T08:28:54.733Z,6.15
2023-03-17T08:31:22.539Z,6.35
2023-03-17T08:33:51.449Z,6.40
2023-03-17T08:36:18.646Z,7.15
2023-03-17T08:38:46.188Z,7.35
2023-03-17T08:41:16.467Z,7.22
2023-03-17T08:43:43.898Z,7.40
2023-03-17T08:46:18.222Z,7.13
2023-03-17T08:48:46.576Z,6.50
2023-03-17T08:51:13.558Z,6.85
2023-03-17T08:53:40.607Z,6.93
2023-03-17T08:56:08.285Z,6.80
2023-03-17T08:58:36.352Z,7.25
2023-03-17T09:01:04.353Z,6.63
2023-03-17T09:03:32.622Z,7.28
2023-03-17T09:05:59.688Z,7.30
2023-03-17T09:08:27.627Z,6.97
2023-03-17T09:10:54.258Z,7.00
2023-03-17T09:13:21.860Z,6.85
2023-03-17T09:15:50.093Z,6.82
2023-03-17T09:18:20.710Z,7.30
2023-03-17T09:20:48.540Z,6.15
2023-03-17T09:23:15.819Z,6.80
2023-03-17T09:25:42.777Z,7.28
2023-03-17T09:28:11.377Z,6.07
2023-03-17T09:30:41.157Z,6.13
2023-03-17T09:33:14.421Z,5.32
2023-03-17T09:35:41.437Z,5.70
2023-03-17T09:38:08.730Z,5.72
2023-03-17T09:40:49.007Z,5.78
2023-03-17T09:43:22.707Z,7.97
2023-03-17T09:45:49.128Z,6.28
2023-03-17T09:48:59.009Z,5.53
2023-03-17T09:51:25.820Z,5.68
2023-03-17T09:54:02.271Z,6.43
2023-03-17T09:56:32.293Z,5.60
2023-03-17T09:59:06.406Z,6.25
2023-03-17T10:01:33.139Z,5.78
2023-03-17T10:03:59.498Z,5.22
2023-03-17T10:06:43.495Z,5.35
2023-03-17T10:09:35.556Z,5.93
2023-03-17T10:12:38.539Z,5.72
2023-03-17T10:15:14.657Z,4.88
2023-03-17T10:17:42.557Z,5.00
2023-03-17T10:20:15.842Z,4.47
2023-03-17T10:22:54.634Z,4.68
2023-03-17T10:25:33.891Z,5.82
2023-03-17T10:28:08.793Z,4.88
2023-03-17T10:30:35.393Z,4.95
2023-03-17T10:33:06.898Z,5.47
2023-03-17T10:35:36.164Z,5.40
2023-03-17T10:38:21.319Z,4.75
2023-03-17T10:40:59.337Z,5.18
2023-03-17T10:43:30.473Z,5.93
2023-03-17T10:46:04.170Z,4.82
2023-03-17T10:48:36.303Z,4.95
2023-03-17T10:51:08.801Z,5.30
2023-03-17T10:53:43.691Z,5.03
2023-03-17T10:56:21.878Z,4.90
2023-03-17T10:58:50.562Z,4.72
2023-03-17T11:01:39.619Z,5.85
2023-03-17T11:04:32.941Z,5.93
2023-03-17T11:07:05.089Z,5.78
2023-03-17T11:09:35.008Z,6.03
2023-03-17T11:12:07.325Z,6.22
2023-03-17T11:14:33.867Z,6.30
2023-03-17T11:17:16.488Z,4.95
2023-03-17T11:20:09.397Z,5.20
2023-03-17T11:22:46.395Z,5.72
2023-03-17T11:25:17.261Z,6.30
2023-03-17T11:27:47.328Z,5.88
2023-03-17T11:30:29.479Z,5.28
2023-03-17T11:32:58.685Z,5.50
2023-03-17T11:35:38.792Z,4.90
2023-03-17T11:38:11.521Z,4.95
2023-03-17T11:40:52.475Z,4.40
2023-03-17T11:43:36.847Z,3.47
2023-03-17T11:46:10.964Z,4.63
2023-03-17T11:48:58.710Z,4.88
2023-03-17T11:51:50.626Z,4.80
2023-03-17T11:54:26.708Z,4.88
2023-03-17T11:56:59.948Z,4.65
2023-03-17T11:59:52.032Z,5.45
2023-03-17T12:02:30.575Z,5.22
2023-03-17T12:05:10.980Z,4.53
2023-03-17T12:07:48.390Z,3.95
2023-03-17T12:10:22.925Z,4.70
2023-03-17T12:13:11.937Z,4.45
2023-03-17T12:15:44.682Z,5.15
2023-03-17T12:18:23.457Z,5.47
2023-03-17T12:20:55.362Z,5.22
2023-03-17T12:23:33.872Z,4.55
2023-03-17T12:26:08.581Z,4.88
2023-03-17T12:28:50.943Z,5.25
2023-03-17T12:31:23.710Z,5.60
2023-03-17T12:34:06.452Z,5.20
2023-03-17T12:36:35.225Z,5.35
2023-03-17T12:39:09.237Z,5.68
2023-03-17T12:41:45.514Z,5.57
2023-03-17T12:44:36.455Z,4.97
2023-03-17T12:47:21.247Z,5.68
2023-03-17T12:50:12.001Z,5.30
2023-03-17T12:53:06.473Z,4.78
2023-03-17T12:55:36.056Z,5.00
2023-03-17T12:58:18.223Z,5.53
2023-03-17T13:01:08.796Z,5.15
2023-03-17T13:03:38.396Z,5.65
2023-03-17T13:06:08.505Z,5.70
2023-03-17T13:08:39.246Z,4.55
2023-03-17T13:11:28.051Z,6.38
2023-03-17T13:13:54.493Z,5.63
2023-03-17T13:16:32.570Z,5.50
2023-03-17T13:19:23.203Z,5.95
2023-03-17T13:22:12.633Z,5.72
2023-03-17T13:24:47.332Z,5.45
2023-03-17T13:27:23.928Z,5.50
2023-03-17T13:29:50.303Z,5.75
2023-03-17T13:32:19.809Z,5.80
2023-03-17T13:34:49.720Z,5.35
2023-03-17T13:37:31.109Z,5.20
2023-03-17T13:40:36.896Z,5.78
2023-03-17T13:43:21.207Z,4.90
2023-03-17T13:45:48.596Z,4.78
2023-03-17T13:48:30.280Z,5.45
2023-03-17T13:51:07.396Z,4.50
2023-03-17T13:53:38.354Z,5.85
2023-03-17T13:56:19.728Z,5.65
2023-03-17T13:58:59.977Z,4.63
2023-03-17T14:01:29.950Z,5.45
2023-03-17T14:03:56.431Z,5.25
2023-03-17T14:06:30.062Z,4.13
2023-03-17T14:09:07.922Z,4.20
2023-03-17T14:11:45.158Z,5.28
2023-03-17T14:14:36.647Z,5.72
2023-03-17T14:17:22.509Z,4.82
2023-03-17T14:20:08.220Z,5.00
2023-03-17T14:22:46.523Z,4.60
2023-03-17T14:25:19.028Z,5.50
2023-03-17T14:27:49.078Z,13.23
2023-03-17T14:30:24.423Z,7.70
2023-03-17T14:33:03.296Z,9.20
2023-03-17T14:35:35.672Z,9.40
2023-03-17T14:38:02.581Z,6.65
2023-03-17T14:40:36.162Z,4.65
2023-03-17T14:43:03.460Z,4.20
2023-03-17T14:45:42.332Z,4.38
2023-03-17T14:48:26.133Z,3.92
2023-03-17T14:51:05.119Z,3.63
2023-03-17T14:53:34.382Z,3.80
2023-03-17T14:56:01.711Z,4.20
2023-03-17T14:58:35.422Z,3.92
2023-03-17T15:01:04.347Z,3.38
2023-03-17T15:03:32.922Z,10.68
2023-03-17T15:06:23.588Z,19.58
2023-03-17T15:08:51.083Z,36.65
2023-03-17T15:11:35.785Z,18.98
2023-03-17T15:14:31.750Z,10.05
2023-03-17T15:16:58.435Z,5.28
2023-03-17T15:19:29.492Z,3.90
2023-03-17T15:22:00.261Z,3.70
2023-03-17T15:24:41.032Z,4.50
2023-03-17T15:27:15.750Z,3.85
2023-03-17T15:29:42.287Z,4.13
2023-03-17T15:32:15.306Z,4.18
2023-03-17T15:37:29.483Z,4.88
2023-03-17T15:39:56.554Z,4.53
2023-03-17T15:42:35.604Z,5.60
2023-03-17T15:45:03.570Z,6.35
2023-03-17T15:47:33.440Z,5.47
2023-03-17T15:50:10.224Z,4.97
2023-03-17T15:52:36.554Z,6.03
2023-03-17T15:55:13.930Z,5.55
2023-03-17T15:57:40.885Z,5.43
2023-03-17T16:00:08.662Z,5.25
2023-03-17T16:02:38.783Z,6.00
2023-03-17T16:05:23.876Z,5.03
2023-03-17T16:07:50.412Z,6.43
2023-03-17T16:10:19.738Z,5.25
2023-03-17T16:12:46.799Z,5.68
2023-03-17T16:15:23.593Z,4.85
2023-03-17T16:17:53.767Z,5.47
2023-03-17T16:20:26.056Z,4.93
2023-03-17T16:22:55.063Z,5.88
2023-03-17T16:25:27.783Z,6.30
2023-03-17T16:27:56.844Z,6.68
2023-03-17T16:30:31.834Z,4.97
2023-03-17T16:33:20.131Z,5.10
2023-03-17T16:35:50.542Z,5.95
2023-03-17T16:38:21.213Z,5.22
2023-03-17T16:40:53.950Z,7.82
2023-03-17T16:43:25.918Z,7.05
2023-03-17T16:45:55.311Z,7.07
2023-03-17T16:48:21.841Z,6.50
2023-03-17T16:50:48.448Z,8.35
2023-03-17T16:53:14.836Z,8.05
2023-03-17T16:55:42.190Z,8.43
2023-03-17T16:58:24.491Z,6.82
2023-03-17T17:00:53.716Z,6.30
2023-03-17T17:03:20.163Z,8.43
2023-03-17T17:05:47.374Z,7.53
2023-03-17T17:08:13.725Z,9.43
2023-03-17T17:10:40.713Z,27.67
2023-03-17T17:13:09.442Z,41.03
2023-03-17T17:15:36.727Z,37.30
2023-03-17T17:18:06.775Z,24.80
2023-03-17T17:20:37.553Z,14.77
2023-03-17T17:23:05.088Z,10.25
2023-03-17T17:25:32.266Z,8.65
2023-03-17T17:27:59.173Z,9.68
2023-03-17T17:30:30.664Z,11.18
2023-03-17T17:32:59.225Z,11.20
2023-03-17T17:35:28.825Z,11.15
2023-03-17T17:37:56.449Z,11.75
2023-03-17T17:40:26.748Z,11.60
2023-03-17T17:42:54.742Z,9.80
2023-03-17T17:45:21.947Z,8.93
2023-03-17T17:47:48.730Z,9.13
2023-03-17T17:50:27.213Z,8.32
2023-03-17T17:52:53.867Z,57.33
2023-03-17T17:55:20.863Z,147.95
2023-03-17T17:57:47.469Z,129.45
2023-03-17T18:00:17.859Z,64.38
2023-03-17T18:02:44.797Z,174.02
2023-03-17T18:05:12.271Z,157.57
2023-03-17T18:07:39.568Z,91.03
2023-03-17T18:10:06.418Z,72.75
2023-03-17T18:12:33.082Z,61.17
2023-03-17T18:14:59.436Z,38.58
2023-03-17T18:17:26.305Z,29.10
2023-03-17T18:19:55.523Z,16.58
2023-03-17T18:22:22.474Z,13.02
2023-03-17T18:24:49.543Z,12.00
2023-03-17T18:27:16.850Z,9.82
2023-03-17T18:29:43.487Z,10.77
2023-03-17T18:32:11.643Z,14.50
2023-03-17T18:34:43.361Z,15.15
2023-03-17T18:37:13.104Z,12.95
2023-03-17T18:39:40.931Z,11.85
2023-03-17T18:42:07.592Z,10.45
2023-03-17T18:44:34.054Z,9.73
2023-03-17T18:47:00.778Z,8.82
2023-03-17T18:49:28.165Z,9.00
2023-03-17T18:51:56.210Z,9.10
2023-03-17T18:54:24.344Z,12.35
2023-03-17T18:56:52.192Z,11.65
2023-03-17T18:59:18.722Z,12.18
2023-03-17T19:01:45.816Z,14.00
2023-03-17T19:04:13.562Z,14.27
2023-03-17T19:06:42.486Z,13.98
2023-03-17T19:09:10.601Z,13.23
2023-03-17T19:11:39.119Z,14.35
2023-03-17T19:14:07.291Z,12.95
2023-03-17T19:16:35.077Z,12.88
2023-03-17T19:19:02.098Z,13.48
2023-03-17T19:21:28.693Z,14.32
2023-03-17T19:23:59.735Z,13.40
2023-03-17T19:26:27.056Z,11.45
2023-03-17T19:28:56.088Z,8.68
2023-03-17T19:31:24.562Z,7.43
2023-03-17T19:33:51.704Z,8.50
2023-03-17T19:36:19.067Z,7.20
2023-03-17T19:38:45.926Z,7.07
2023-03-17T19:41:13.403Z,7.57
2023-03-17T19:43:41.499Z,5.88
2023-03-17T19:46:11.973Z,7.47
2023-03-17T19:48:38.856Z,6.38
2023-03-17T19:51:05.442Z,7.07
2023-03-17T19:53:31.909Z,7.50
2023-03-17T19:55:58.323Z,6.00
2023-03-17T19:58:24.823Z,6.70
2023-03-17T20:00:51.531Z,8.15
2023-03-17T20:03:18.255Z,6.13
2023-03-17T20:05:49.897Z,5.25
2023-03-17T20:08:16.689Z,5.93
2023-03-17T20:10:43.894Z,6.70
2023-03-17T20:13:11.981Z,6.03
2023-03-17T20:15:40.083Z,5.35
2023-03-17T20:18:06.740Z,5.80
2023-03-17T20:20:34.762Z,5.20
2023-03-17T20:23:01.391Z,6.53
2023-03-17T20:25:37.853Z,5.65
2023-03-17T20:28:05.388Z,5.63
2023-03-17T20:30:32.181Z,5.13
2023-03-17T20:33:15.220Z,5.20
2023-03-17T20:35:59.227Z,5.53
2023-03-17T20:38:27.188Z,5.75
2023-03-17T20:41:10.019Z,5.47
2023-03-17T20:43:38.691Z,5.38
2023-03-17T20:46:25.367Z,6.72
2023-03-17T20:48:58.212Z,6.20
2023-03-17T20:51:26.129Z,6.00
2023-03-17T20:53:56.691Z,6.40
2023-03-17T20:56:24.457Z,6.63
2023-03-17T20:58:53.154Z,7.03
2023-03-17T21:01:21.459Z,7.53
2023-03-17T21:03:49.318Z,7.07
2023-03-17T21:06:17.049Z,6.50
2023-03-17T21:08:44.076Z,6.53
2023-03-17T21:11:14.976Z,6.68
2023-03-17T21:13:42.687Z,7.28
2023-03-17T21:16:19.272Z,7.97
2023-03-17T21:18:46.244Z,7.95
2023-03-17T21:21:16.601Z,10.82
2023-03-17T21:23:44.541Z,9.77
2023-03-17T21:26:11.632Z,8.25
2023-03-17T21:28:41.333Z,9.98
2023-03-17T21:31:09.610Z,9.27
2023-03-17T21:33:36.426Z,8.82
2023-03-17T21:36:03.186Z,8.98
2023-03-17T21:38:32.498Z,8.65
2023-03-17T21:41:20.470Z,8.27
2023-03-17T21:43:50.466Z,9.18
2023-03-17T21:46:17.072Z,7.65
2023-03-17T21:48:44.118Z,8.40
2023-03-17T21:51:11.671Z,7.28
2023-03-17T21:53:40.367Z,6.65
2023-03-17T21:56:06.931Z,6.28
2023-03-17T21:58:34.328Z,6.38
2023-03-17T22:01:01.284Z,6.70
2023-03-17T22:03:32.074Z,6.18
2023-03-17T22:05:59.303Z,6.03
2023-03-17T22:08:26.513Z,6.55
2023-03-17T22:10:53.005Z,6.25
2023-03-17T22:13:19.391Z,6.35
2023-03-17T22:15:45.910Z,5.90
2023-03-17T22:18:12.265Z,5.78
2023-03-17T22:20:38.919Z,5.82
2023-03-17T22:23:05.306Z,6.78
2023-03-17T22:25:31.710Z,5.45
2023-03-17T22:27:58.053Z,6.25
2023-03-17T22:30:24.935Z,7.43
2023-03-17T22:32:51.541Z,6.00
2023-03-17T22:35:19.498Z,7.47
2023-03-17T22:37:46.302Z,6.43
2023-03-17T22:40:12.995Z,6.22
2023-03-17T22:42:39.309Z,6.97
2023-03-17T22:45:06.207Z,7.32
2023-03-17T22:47:32.539Z,6.85
2023-03-17T22:49:58.895Z,6.90
2023-03-17T22:52:25.198Z,7.50
2023-03-17T22:54:51.585Z,7.07
2023-03-17T22:57:17.897Z,6.93
2023-03-17T22:59:44.347Z,7.60
2023-03-17T23:02:11.407Z,8.18
2023-03-17T23:04:38.010Z,8.05
2023-03-17T23:07:05.323Z,7.85
2023-03-17T23:09:32.645Z,9.30
2023-03-17T23:11:59.573Z,8.70
2023-03-17T23:14:26.400Z,7.78
2023-03-17T23:16:52.838Z,7.00
2023-03-17T23:19:19.473Z,9.18
2023-03-17T23:21:46.097Z,7.45
2023-03-17T23:24:12.633Z,8.15
2023-03-17T23:26:38.946Z,7.60
2023-03-17T23:29:08.223Z,8.13
2023-03-17T23:31:36.703Z,7.78
2023-03-17T23:34:06.385Z,8.20
2023-03-17T23:36:33.536Z,7.25
2023-03-17T23:39:00.881Z,7.57
2023-03-17T23:41:27.462Z,8.30
2023-03-17T23:43:53.817Z,7.75
2023-03-17T23:46:20.548Z,6.90
2023-03-17T23:48:48.994Z,7.32
2023-03-17T23:51:15.494Z,7.22
2023-03-17T23:53:41.952Z,6.43
2023-03-17T23:56:09.876Z,8.02
2023-03-17T23:58:36.279Z,6.80
